createdAt,value
2018-05-24T00:00:47.289Z,0.00
2018-05-24T00:01:47.241Z,0.00
2018-05-24T00:02:47.204Z,0.00
2018-05-24T00:03:47.160Z,0.00
2018-05-24T00:04:47.119Z,0.00
2018-05-24T00:05:47.077Z,0.00
2018-05-24T00:06:47.038Z,0.00
2018-05-24T00:07:47.029Z,0.00
2018-05-24T00:08:46.955Z,0.00
2018-05-24T00:09:46.917Z,0.00
2018-05-24T00:10:46.872Z,0.00
2018-05-24T00:11:46.832Z,0.00
2018-05-24T00:12:46.790Z,0.00
2018-05-24T00:13:46.749Z,0.00
2018-05-24T00:14:46.708Z,0.00
2018-05-24T00:15:46.667Z,0.00
2018-05-24T00:16:46.627Z,0.00
2018-05-24T00:17:46.585Z,0.00
2018-05-24T00:18:46.543Z,0.00
2018-05-24T00:19:46.503Z,0.00
2018-05-24T00:20:46.462Z,0.00
2018-05-24T00:21:46.421Z,0.00
2018-05-24T00:22:46.380Z,0.00
2018-05-24T00:23:46.338Z,0.00
2018-05-24T00:24:46.298Z,0.00
2018-05-24T00:25:46.256Z,0.00
2018-05-24T00:26:46.215Z,0.00
2018-05-24T00:27:46.174Z,0.00
2018-05-24T00:28:46.133Z,0.00
2018-05-24T00:29:46.097Z,0.00
2018-05-24T00:30:46.050Z,0.00
2018-05-24T00:31:46.009Z,0.00
2018-05-24T00:32:45.968Z,0.00
2018-05-24T00:33:45.927Z,0.00
2018-05-24T00:34:45.935Z,0.00
2018-05-24T00:35:45.845Z,0.00
2018-05-24T00:36:45.804Z,0.00
2018-05-24T00:37:45.761Z,0.00
2018-05-24T00:38:45.725Z,0.00
2018-05-24T00:39:45.680Z,0.00
2018-05-24T00:40:45.639Z,0.00
2018-05-24T00:41:45.597Z,0.00
2018-05-24T00:42:45.556Z,0.00
2018-05-24T00:43:45.515Z,0.00
2018-05-24T00:44:45.477Z,0.00
2018-05-24T00:45:45.434Z,0.00
2018-05-24T00:46:45.393Z,0.00
2018-05-24T00:47:45.351Z,0.00
2018-05-24T00:48:45.313Z,0.00
2018-05-24T00:49:45.268Z,0.00
2018-05-24T00:50:45.263Z,0.00
2018-05-24T00:51:45.186Z,0.00
2018-05-24T00:52:45.145Z,0.00
2018-05-24T00:53:45.103Z,0.00
2018-05-24T00:54:45.153Z,0.00
2018-05-24T00:55:45.030Z,0.00
2018-05-24T00:56:45.047Z,0.00
2018-05-24T00:57:45.010Z,0.00
2018-05-24T00:58:44.898Z,0.00
2018-05-24T00:59:44.856Z,0.00
2018-05-24T01:00:44.815Z,0.00
2018-05-24T01:01:44.773Z,0.00
2018-05-24T01:02:44.733Z,0.00
2018-05-24T01:03:44.691Z,0.00
2018-05-24T01:04:44.651Z,0.00
2018-05-24T01:05:44.609Z,0.00
2018-05-24T01:06:44.569Z,0.00
2018-05-24T01:07:44.527Z,0.00
2018-05-24T01:08:44.486Z,0.00
2018-05-24T01:09:44.444Z,0.00
2018-05-24T01:10:44.403Z,0.00
2018-05-24T01:11:44.362Z,0.00
2018-05-24T01:12:44.321Z,0.00
2018-05-24T01:13:44.279Z,0.00
2018-05-24T01:14:44.238Z,0.00
2018-05-24T01:15:44.281Z,0.00
2018-05-24T01:16:44.156Z,0.00
2018-05-24T01:17:44.113Z,0.00
2018-05-24T01:18:44.073Z,0.00
2018-05-24T01:19:44.032Z,0.00
2018-05-24T01:20:43.991Z,0.00
2018-05-24T01:21:43.949Z,0.00
2018-05-24T01:22:43.908Z,0.00
2018-05-24T01:23:43.869Z,0.00
2018-05-24T01:24:43.827Z,0.00
2018-05-24T01:25:43.784Z,0.00
2018-05-24T01:26:43.743Z,0.00
2018-05-24T01:27:43.701Z,0.00
2018-05-24T01:28:43.663Z,0.00
2018-05-24T01:29:43.619Z,0.00
2018-05-24T01:30:43.577Z,0.00
2018-05-24T01:31:43.537Z,0.00
2018-05-24T01:32:43.496Z,0.00
2018-05-24T01:33:43.454Z,0.00
2018-05-24T01:34:43.413Z,0.00
2018-05-24T01:35:43.372Z,0.00
2018-05-24T01:36:43.330Z,0.00
2018-05-24T01:37:43.288Z,0.00
2018-05-24T01:38:43.249Z,0.00
2018-05-24T01:39:43.291Z,0.00
2018-05-24T01:40:43.166Z,0.00
2018-05-24T01:41:43.123Z,0.00
2018-05-24T01:42:43.083Z,0.00
2018-05-24T01:43:43.042Z,0.00
2018-05-24T01:44:43.000Z,0.00
2018-05-24T01:45:42.958Z,0.00
2018-05-24T01:46:42.918Z,0.00
2018-05-24T01:47:42.876Z,0.00
2018-05-24T01:48:42.835Z,0.00
2018-05-24T01:49:42.793Z,0.00
2018-05-24T01:50:42.752Z,0.00
2018-05-24T01:51:42.711Z,0.00
2018-05-24T01:52:42.670Z,0.00
2018-05-24T01:53:42.628Z,0.00
2018-05-24T01:54:42.586Z,0.00
2018-05-24T01:55:42.545Z,0.00
2018-05-24T01:56:42.505Z,0.00
2018-05-24T01:57:42.463Z,0.00
2018-05-24T01:58:42.423Z,0.00
2018-05-24T01:59:42.382Z,0.00
2018-05-24T02:00:42.339Z,0.00
2018-05-24T02:01:42.297Z,0.00
2018-05-24T02:02:42.256Z,0.00
2018-05-24T02:03:42.216Z,0.00
2018-05-24T02:04:42.172Z,0.00
2018-05-24T02:05:42.133Z,0.00
2018-05-24T02:06:42.090Z,0.00
2018-05-24T02:07:42.049Z,0.00
2018-05-24T02:08:42.009Z,0.00
2018-05-24T02:09:41.965Z,0.00
2018-05-24T02:10:41.925Z,0.00
2018-05-24T02:11:41.883Z,0.00
2018-05-24T02:12:41.842Z,0.00
2018-05-24T02:13:41.801Z,0.00
2018-05-24T02:14:41.759Z,0.00
2018-05-24T02:15:41.718Z,0.00
2018-05-24T02:16:41.683Z,0.00
2018-05-24T02:17:41.635Z,0.00
2018-05-24T02:18:41.594Z,0.00
2018-05-24T02:19:41.553Z,0.00
2018-05-24T02:20:41.513Z,0.00
2018-05-24T02:21:41.474Z,0.00
2018-05-24T02:22:41.428Z,0.00
2018-05-24T02:23:41.387Z,0.00
2018-05-24T02:24:41.346Z,0.00
2018-05-24T02:25:41.303Z,0.00
2018-05-24T02:26:41.263Z,0.00
2018-05-24T02:27:41.221Z,0.00
2018-05-24T02:28:41.180Z,0.00
2018-05-24T02:29:41.138Z,0.00
2018-05-24T02:30:41.097Z,0.00
2018-05-24T02:31:41.056Z,0.00
2018-05-24T02:32:41.015Z,0.00
2018-05-24T02:33:40.972Z,0.00
2018-05-24T02:34:40.931Z,0.00
2018-05-24T02:35:40.899Z,0.00
2018-05-24T02:36:40.851Z,0.00
2018-05-24T02:37:40.807Z,0.00
2018-05-24T02:38:40.765Z,0.00
2018-05-24T02:39:40.726Z,0.00
2018-05-24T02:40:40.686Z,0.00
2018-05-24T02:41:40.641Z,0.00
2018-05-24T02:42:40.599Z,0.00
2018-05-24T02:43:40.558Z,0.00
2018-05-24T02:44:40.517Z,0.00
2018-05-24T02:45:40.475Z,0.00
2018-05-24T02:46:40.433Z,0.00
2018-05-24T02:47:40.391Z,0.00
2018-05-24T02:48:40.351Z,0.00
2018-05-24T02:49:40.313Z,0.00
2018-05-24T02:50:40.269Z,0.00
2018-05-24T02:51:40.233Z,0.00
2018-05-24T02:52:40.235Z,0.00
2018-05-24T02:53:40.145Z,0.00
2018-05-24T02:54:40.101Z,0.00
2018-05-24T02:55:40.060Z,0.00
2018-05-24T02:56:40.019Z,4.00
2018-05-24T02:57:39.977Z,4.00
2018-05-24T02:58:39.936Z,4.00
2018-05-24T02:59:39.894Z,4.00
2018-05-24T03:00:39.855Z,4.00
2018-05-24T03:01:39.895Z,0.00
2018-05-24T03:02:39.769Z,0.00
2018-05-24T03:03:39.730Z,0.00
2018-05-24T03:04:39.687Z,4.00
2018-05-24T03:05:39.645Z,4.00
2018-05-24T03:06:39.603Z,4.00
2018-05-24T03:07:39.562Z,4.00
2018-05-24T03:08:39.521Z,4.00
2018-05-24T03:09:39.479Z,4.00
2018-05-24T03:10:39.437Z,4.00
2018-05-24T03:11:39.397Z,4.00
2018-05-24T03:12:39.358Z,4.00
2018-05-24T03:13:39.312Z,8.00
2018-05-24T03:14:39.272Z,8.00
2018-05-24T03:15:39.231Z,4.00
2018-05-24T03:16:39.188Z,4.00
2018-05-24T03:17:39.153Z,8.00
2018-05-24T03:18:39.106Z,8.00
2018-05-24T03:19:39.063Z,8.00
2018-05-24T03:20:39.022Z,8.00
2018-05-24T03:21:38.979Z,8.00
2018-05-24T03:22:38.939Z,12.00
2018-05-24T03:23:38.897Z,12.00
2018-05-24T03:24:38.856Z,8.00
2018-05-24T03:25:38.813Z,12.00
2018-05-24T03:26:38.772Z,12.00
2018-05-24T03:27:38.731Z,12.00
2018-05-24T03:28:38.693Z,12.00
2018-05-24T03:29:38.647Z,12.00
2018-05-24T03:30:38.605Z,16.00
2018-05-24T03:31:38.564Z,12.00
2018-05-24T03:32:38.522Z,16.00
2018-05-24T03:33:38.481Z,16.00
2018-05-24T03:34:38.440Z,16.00
2018-05-24T03:35:38.398Z,16.00
2018-05-24T03:36:38.356Z,16.00
2018-05-24T03:37:38.314Z,16.00
2018-05-24T03:38:38.276Z,20.00
2018-05-24T03:39:38.231Z,16.00
2018-05-24T03:40:38.190Z,20.00
2018-05-24T03:41:38.147Z,20.00
2018-05-24T03:42:38.106Z,20.00
2018-05-24T03:43:38.065Z,20.00
2018-05-24T03:44:38.024Z,24.00
2018-05-24T03:45:37.981Z,24.00
2018-05-24T03:46:37.940Z,24.00
2018-05-24T03:47:37.899Z,28.00
2018-05-24T03:48:37.857Z,24.00
2018-05-24T03:49:37.814Z,28.00
2018-05-24T03:50:37.773Z,28.00
2018-05-24T03:51:37.731Z,28.00
2018-05-24T03:52:37.690Z,28.00
2018-05-24T03:53:37.647Z,28.00
2018-05-24T03:54:37.614Z,32.00
2018-05-24T03:55:37.565Z,32.00
2018-05-24T03:56:37.523Z,32.00
2018-05-24T03:57:37.487Z,28.00
2018-05-24T03:58:37.440Z,28.00
2018-05-24T03:59:37.398Z,32.00
2018-05-24T04:00:37.357Z,32.00
2018-05-24T04:01:37.314Z,32.00
2018-05-24T04:02:37.273Z,32.00
2018-05-24T04:03:37.332Z,32.00
2018-05-24T04:04:37.190Z,32.00
2018-05-24T04:05:37.156Z,32.00
2018-05-24T04:06:37.107Z,32.00
2018-05-24T04:07:37.065Z,36.00
2018-05-24T04:08:37.024Z,36.00
2018-05-24T04:09:36.981Z,36.00
2018-05-24T04:10:36.940Z,32.00
2018-05-24T04:11:36.901Z,36.00
2018-05-24T04:12:36.857Z,36.00
2018-05-24T04:13:36.815Z,36.00
2018-05-24T04:14:36.773Z,40.00
2018-05-24T04:15:36.731Z,36.00
2018-05-24T04:16:36.690Z,36.00
2018-05-24T04:17:36.647Z,40.00
2018-05-24T04:18:36.606Z,40.00
2018-05-24T04:19:36.565Z,36.00
2018-05-24T04:20:36.524Z,40.00
2018-05-24T04:21:36.481Z,40.00
2018-05-24T04:22:36.439Z,40.00
2018-05-24T04:23:36.399Z,40.00
2018-05-24T04:24:36.363Z,40.00
2018-05-24T04:25:36.314Z,44.00
2018-05-24T04:26:36.273Z,44.00
2018-05-24T04:27:36.231Z,44.00
2018-05-24T04:28:36.190Z,44.00
2018-05-24T04:29:36.148Z,48.00
2018-05-24T04:30:36.106Z,44.00
2018-05-24T04:31:36.065Z,44.00
2018-05-24T04:32:36.024Z,44.00
2018-05-24T04:33:35.980Z,48.00
2018-05-24T04:34:35.940Z,48.00
2018-05-24T04:35:35.902Z,52.00
2018-05-24T04:36:35.857Z,48.00
2018-05-24T04:37:35.815Z,48.00
2018-05-24T04:38:35.773Z,56.00
2018-05-24T04:39:35.732Z,56.00
2018-05-24T04:40:35.690Z,56.00
2018-05-24T04:41:35.655Z,60.00
2018-05-24T04:42:35.606Z,60.00
2018-05-24T04:43:35.564Z,68.00
2018-05-24T04:44:35.523Z,68.00
2018-05-24T04:45:35.548Z,76.00
2018-05-24T04:46:35.440Z,84.00
2018-05-24T04:47:35.402Z,84.00
2018-05-24T04:48:35.357Z,88.00
2018-05-24T04:49:35.314Z,92.00
2018-05-24T04:50:35.273Z,96.00
2018-05-24T04:51:35.231Z,96.00
2018-05-24T04:52:35.190Z,96.00
2018-05-24T04:53:35.147Z,100.00
2018-05-24T04:54:35.109Z,104.00
2018-05-24T04:55:35.066Z,100.00
2018-05-24T04:56:35.024Z,104.00
2018-05-24T04:57:34.981Z,104.00
2018-05-24T04:58:34.940Z,112.00
2018-05-24T04:59:34.898Z,112.00
2018-05-24T05:00:34.859Z,112.00
2018-05-24T05:01:34.829Z,112.00
2018-05-24T05:02:34.773Z,124.00
2018-05-24T05:03:34.731Z,120.00
2018-05-24T05:04:34.691Z,116.00
2018-05-24T05:05:34.648Z,120.00
2018-05-24T05:06:34.606Z,124.00
2018-05-24T05:07:34.565Z,128.00
2018-05-24T05:08:34.525Z,132.00
2018-05-24T05:09:34.481Z,132.00
2018-05-24T05:10:34.440Z,128.00
2018-05-24T05:11:34.399Z,136.00
2018-05-24T05:12:34.357Z,140.00
2018-05-24T05:13:34.467Z,144.00
2018-05-24T05:14:34.328Z,140.00
2018-05-24T05:15:34.240Z,132.00
2018-05-24T05:16:34.192Z,136.00
2018-05-24T05:17:34.148Z,148.00
2018-05-24T05:18:34.107Z,144.00
2018-05-24T05:19:34.105Z,136.00
2018-05-24T05:20:34.025Z,128.00
2018-05-24T05:21:33.982Z,112.00
2018-05-24T05:22:33.941Z,104.00
2018-05-24T05:23:33.899Z,124.00
2018-05-24T05:24:33.858Z,136.00
2018-05-24T05:25:33.816Z,140.00
2018-05-24T05:26:33.779Z,148.00
2018-05-24T05:27:33.736Z,172.00
2018-05-24T05:28:33.692Z,180.00
2018-05-24T05:29:33.650Z,176.00
2018-05-24T05:30:33.648Z,160.00
2018-05-24T05:31:33.568Z,176.00
2018-05-24T05:32:33.526Z,180.00
2018-05-24T05:33:33.484Z,184.00
2018-05-24T05:34:33.443Z,176.00
2018-05-24T05:35:33.404Z,168.00
2018-05-24T05:36:33.360Z,164.00
2018-05-24T05:37:33.338Z,148.00
2018-05-24T05:38:33.277Z,140.00
2018-05-24T05:39:33.236Z,144.00
2018-05-24T05:40:33.195Z,148.00
2018-05-24T05:41:33.154Z,144.00
2018-05-24T05:42:33.116Z,168.00
2018-05-24T05:43:33.070Z,172.00
2018-05-24T05:44:33.029Z,184.00
2018-05-24T05:45:32.987Z,192.00
2018-05-24T05:46:32.946Z,192.00
2018-05-24T05:47:32.908Z,180.00
2018-05-24T05:48:32.914Z,160.00
2018-05-24T05:49:32.821Z,148.00
2018-05-24T05:50:32.783Z,148.00
2018-05-24T05:51:32.744Z,172.00
2018-05-24T05:52:32.700Z,196.00
2018-05-24T05:53:32.656Z,208.00
2018-05-24T05:54:32.721Z,208.00
2018-05-24T05:55:32.574Z,216.00
2018-05-24T05:56:32.532Z,216.00
2018-05-24T05:57:32.491Z,200.00
2018-05-24T05:58:32.450Z,176.00
2018-05-24T05:59:32.411Z,172.00
2018-05-24T06:00:32.368Z,188.00
2018-05-24T06:01:32.355Z,204.00
2018-05-24T06:02:32.287Z,152.00
2018-05-24T06:03:32.243Z,152.00
2018-05-24T06:04:32.203Z,144.00
2018-05-24T06:05:32.161Z,144.00
2018-05-24T06:06:32.119Z,148.00
2018-05-24T06:07:32.078Z,148.00
2018-05-24T06:08:32.038Z,172.00
2018-05-24T06:09:31.996Z,184.00
2018-05-24T06:10:31.955Z,220.00
2018-05-24T06:11:31.913Z,240.00
2018-05-24T06:12:31.874Z,228.00
2018-05-24T06:13:31.831Z,240.00
2018-05-24T06:14:31.790Z,236.00
2018-05-24T06:15:31.832Z,252.00
2018-05-24T06:16:31.707Z,260.00
2018-05-24T06:17:31.664Z,268.00
2018-05-24T06:18:31.625Z,244.00
2018-05-24T06:19:31.585Z,200.00
2018-05-24T06:20:31.544Z,188.00
2018-05-24T06:21:31.521Z,200.00
2018-05-24T06:22:31.461Z,216.00
2018-05-24T06:23:31.419Z,240.00
2018-05-24T06:24:31.378Z,236.00
2018-05-24T06:25:31.336Z,220.00
2018-05-24T06:26:31.296Z,232.00
2018-05-24T06:27:31.255Z,276.00
2018-05-24T06:28:31.308Z,276.00
2018-05-24T06:29:31.174Z,248.00
2018-05-24T06:30:31.133Z,268.00
2018-05-24T06:31:31.091Z,248.00
2018-05-24T06:32:31.050Z,240.00
2018-05-24T06:33:31.008Z,240.00
2018-05-24T06:34:30.967Z,256.00
2018-05-24T06:35:30.928Z,268.00
2018-05-24T06:36:30.886Z,324.00
2018-05-24T06:37:30.844Z,240.00
2018-05-24T06:38:30.803Z,240.00
2018-05-24T06:39:30.761Z,264.00
2018-05-24T06:40:30.809Z,280.00
2018-05-24T06:41:30.730Z,240.00
2018-05-24T06:42:30.643Z,228.00
2018-05-24T06:43:30.599Z,204.00
2018-05-24T06:44:30.558Z,200.00
2018-05-24T06:45:30.517Z,248.00
2018-05-24T06:46:30.564Z,260.00
2018-05-24T06:47:30.434Z,284.00
2018-05-24T06:48:30.395Z,308.00
2018-05-24T06:49:30.352Z,272.00
2018-05-24T06:50:30.313Z,180.00
2018-05-24T06:51:30.273Z,144.00
2018-05-24T06:52:30.231Z,148.00
2018-05-24T06:53:30.191Z,188.00
2018-05-24T06:54:30.150Z,164.00
2018-05-24T06:55:30.110Z,152.00
2018-05-24T06:56:30.069Z,164.00
2018-05-24T06:57:30.028Z,188.00
2018-05-24T06:58:29.988Z,236.00
2018-05-24T06:59:29.947Z,260.00
2018-05-24T07:00:29.906Z,324.00
2018-05-24T07:01:29.865Z,344.00
2018-05-24T07:02:29.824Z,340.00
2018-05-24T07:03:29.784Z,372.00
2018-05-24T07:04:29.744Z,380.00
2018-05-24T07:05:29.703Z,364.00
2018-05-24T07:06:29.668Z,380.00
2018-05-24T07:07:29.624Z,388.00
2018-05-24T07:08:29.583Z,388.00
2018-05-24T07:09:29.540Z,380.00
2018-05-24T07:10:29.500Z,364.00
2018-05-24T07:11:29.460Z,404.00
2018-05-24T07:12:29.420Z,408.00
2018-05-24T07:13:29.380Z,408.00
2018-05-24T07:14:29.338Z,424.00
2018-05-24T07:15:29.299Z,448.00
2018-05-24T07:16:29.259Z,452.00
2018-05-24T07:17:29.217Z,460.00
2018-05-24T07:18:29.267Z,456.00
2018-05-24T07:19:29.139Z,448.00
2018-05-24T07:20:29.100Z,452.00
2018-05-24T07:21:29.057Z,480.00
2018-05-24T07:22:29.020Z,496.00
2018-05-24T07:23:28.979Z,508.00
2018-05-24T07:24:28.938Z,516.00
2018-05-24T07:25:28.899Z,528.00
2018-05-24T07:26:28.860Z,544.00
2018-05-24T07:27:28.821Z,556.00
2018-05-24T07:28:28.780Z,580.00
2018-05-24T07:29:28.741Z,592.00
2018-05-24T07:30:28.773Z,608.00
2018-05-24T07:31:28.663Z,628.00
2018-05-24T07:32:28.622Z,648.00
2018-05-24T07:33:28.584Z,676.00
2018-05-24T07:34:28.545Z,696.00
2018-05-24T07:35:28.506Z,640.00
2018-05-24T07:36:28.466Z,700.00
2018-05-24T07:37:28.428Z,764.00
2018-05-24T07:38:28.388Z,776.00
2018-05-24T07:39:28.349Z,812.00
2018-05-24T07:40:28.310Z,828.00
2018-05-24T07:41:28.271Z,896.00
2018-05-24T07:42:28.233Z,964.00
2018-05-24T07:43:28.195Z,1040.00
2018-05-24T07:44:28.156Z,1136.00
2018-05-24T07:45:28.117Z,808.00
2018-05-24T07:46:28.079Z,908.00
2018-05-24T07:47:28.041Z,1096.00
2018-05-24T07:48:28.004Z,1124.00
2018-05-24T07:49:27.963Z,1032.00
2018-05-24T07:50:27.925Z,844.00
2018-05-24T07:51:27.891Z,724.00
2018-05-24T07:52:27.849Z,624.00
2018-05-24T07:53:27.808Z,688.00
2018-05-24T07:54:27.771Z,640.00
2018-05-24T07:55:27.733Z,544.00
2018-05-24T07:56:27.695Z,540.00
2018-05-24T07:57:27.659Z,600.00
2018-05-24T07:58:27.617Z,696.00
2018-05-24T07:59:27.579Z,704.00
2018-05-24T08:00:27.541Z,720.00
2018-05-24T08:01:27.501Z,784.00
2018-05-24T08:02:27.462Z,716.00
2018-05-24T08:03:27.425Z,664.00
2018-05-24T08:04:27.387Z,788.00
2018-05-24T08:05:27.348Z,720.00
2018-05-24T08:06:27.314Z,724.00
2018-05-24T08:07:27.271Z,828.00
2018-05-24T08:08:27.232Z,964.00
2018-05-24T08:09:27.199Z,1040.00
2018-05-24T08:10:27.155Z,1168.00
2018-05-24T08:11:27.115Z,1312.00
2018-05-24T08:12:27.080Z,1420.00
2018-05-24T08:13:27.039Z,1496.00
2018-05-24T08:14:26.999Z,1604.00
2018-05-24T08:15:26.961Z,1676.00
2018-05-24T08:16:26.923Z,1676.00
2018-05-24T08:17:26.933Z,1784.00
2018-05-24T08:18:26.845Z,1840.00
2018-05-24T08:19:26.808Z,1888.00
2018-05-24T08:20:26.770Z,1940.00
2018-05-24T08:21:26.732Z,2000.00
2018-05-24T08:22:26.711Z,2064.00
2018-05-24T08:23:26.655Z,2124.00
2018-05-24T08:24:26.617Z,2292.00
2018-05-24T08:25:26.581Z,2388.00
2018-05-24T08:26:26.541Z,2428.00
2018-05-24T08:27:26.504Z,2592.00
2018-05-24T08:28:26.466Z,2724.00
2018-05-24T08:29:26.429Z,2916.00
2018-05-24T08:30:26.391Z,3104.00
2018-05-24T08:31:26.354Z,3352.00
2018-05-24T08:32:26.321Z,3616.00
2018-05-24T08:33:26.279Z,3804.00
2018-05-24T08:34:26.242Z,3820.00
2018-05-24T08:35:26.205Z,3864.00
2018-05-24T08:36:26.169Z,4016.00
2018-05-24T08:37:26.131Z,4060.00
2018-05-24T08:38:26.094Z,4044.00
2018-05-24T08:39:26.058Z,4108.00
2018-05-24T08:40:26.022Z,4368.00
2018-05-24T08:41:25.984Z,4528.00
2018-05-24T08:42:25.955Z,4476.00
2018-05-24T08:43:25.912Z,4420.00
2018-05-24T08:44:25.875Z,4396.00
2018-05-24T08:45:25.837Z,4340.00
2018-05-24T08:46:25.802Z,4148.00
2018-05-24T08:47:25.787Z,4236.00
2018-05-24T08:48:25.731Z,4324.00
2018-05-24T08:49:25.694Z,4140.00
2018-05-24T08:50:25.658Z,3620.00
2018-05-24T08:51:25.625Z,3044.00
2018-05-24T08:52:25.586Z,2692.00
2018-05-24T08:53:25.635Z,2452.00
2018-05-24T08:54:25.532Z,2324.00
2018-05-24T08:55:25.478Z,2280.00
2018-05-24T08:56:25.443Z,2216.00
2018-05-24T08:57:25.406Z,2124.00
2018-05-24T08:58:25.370Z,2056.00
2018-05-24T08:59:25.348Z,2024.00
2018-05-24T09:00:25.299Z,1964.00
2018-05-24T09:01:25.295Z,1904.00
2018-05-24T09:02:25.226Z,1908.00
2018-05-24T09:03:25.191Z,1868.00
2018-05-24T09:04:25.159Z,1800.00
2018-05-24T09:05:25.119Z,1780.00
2018-05-24T09:06:25.084Z,1832.00
2018-05-24T09:07:25.049Z,1888.00
2018-05-24T09:08:25.065Z,1848.00
2018-05-24T09:09:24.975Z,1808.00
2018-05-24T09:10:24.941Z,1820.00
2018-05-24T09:11:24.905Z,1808.00
2018-05-24T09:12:24.870Z,1720.00
2018-05-24T09:13:24.833Z,1636.00
2018-05-24T09:14:24.798Z,1600.00
2018-05-24T09:15:24.764Z,1548.00
2018-05-24T09:16:24.727Z,1460.00
2018-05-24T09:17:24.691Z,1428.00
2018-05-24T09:18:24.670Z,1400.00
2018-05-24T09:19:24.619Z,1416.00
2018-05-24T09:20:24.584Z,1464.00
2018-05-24T09:21:24.547Z,1552.00
2018-05-24T09:22:24.513Z,1596.00
2018-05-24T09:23:24.479Z,1664.00
2018-05-24T09:24:24.524Z,1696.00
2018-05-24T09:25:24.408Z,1576.00
2018-05-24T09:26:24.373Z,1432.00
2018-05-24T09:27:24.335Z,1312.00
2018-05-24T09:28:24.297Z,1228.00
2018-05-24T09:29:24.358Z,1296.00
2018-05-24T09:30:24.225Z,1368.00
2018-05-24T09:31:24.189Z,1380.00
2018-05-24T09:32:24.158Z,1408.00
2018-05-24T09:33:24.116Z,1392.00
2018-05-24T09:34:24.082Z,1252.00
2018-05-24T09:35:24.045Z,1068.00
2018-05-24T09:36:24.048Z,872.00
2018-05-24T09:37:23.972Z,852.00
2018-05-24T09:38:23.936Z,732.00
2018-05-24T09:39:23.900Z,524.00
2018-05-24T09:40:23.864Z,428.00
2018-05-24T09:41:23.826Z,332.00
2018-05-24T09:42:23.790Z,236.00
2018-05-24T09:43:23.754Z,176.00
2018-05-24T09:44:23.870Z,148.00
2018-05-24T09:45:23.680Z,140.00
2018-05-24T09:46:23.643Z,136.00
2018-05-24T09:47:23.612Z,136.00
2018-05-24T09:48:23.570Z,132.00
2018-05-24T09:49:23.531Z,132.00
2018-05-24T09:50:23.506Z,136.00
2018-05-24T09:51:23.458Z,132.00
2018-05-24T09:52:23.421Z,136.00
2018-05-24T09:53:23.382Z,136.00
2018-05-24T09:54:23.345Z,132.00
2018-05-24T09:55:23.435Z,124.00
2018-05-24T09:56:23.269Z,128.00
2018-05-24T09:57:23.233Z,124.00
2018-05-24T09:58:23.194Z,128.00
2018-05-24T09:59:23.156Z,136.00
2018-05-24T10:00:23.118Z,144.00
2018-05-24T10:01:23.096Z,144.00
2018-05-24T10:02:23.042Z,148.00
2018-05-24T10:03:23.002Z,140.00
2018-05-24T10:04:22.965Z,140.00
2018-05-24T10:05:22.926Z,144.00
2018-05-24T10:06:22.888Z,136.00
2018-05-24T10:07:22.852Z,136.00
2018-05-24T10:08:22.814Z,140.00
2018-05-24T10:09:22.772Z,144.00
2018-05-24T10:10:22.734Z,144.00
2018-05-24T10:11:22.696Z,132.00
2018-05-24T10:12:22.657Z,132.00
2018-05-24T10:13:22.618Z,124.00
2018-05-24T10:14:22.580Z,140.00
2018-05-24T10:15:22.541Z,148.00
2018-05-24T10:16:22.541Z,124.00
2018-05-24T10:17:22.464Z,124.00
2018-05-24T10:18:22.424Z,116.00
2018-05-24T10:19:22.385Z,132.00
2018-05-24T10:20:22.350Z,128.00
2018-05-24T10:21:22.309Z,136.00
2018-05-24T10:22:22.269Z,136.00
2018-05-24T10:23:22.340Z,136.00
2018-05-24T10:24:22.192Z,148.00
2018-05-24T10:25:22.151Z,148.00
2018-05-24T10:26:22.113Z,120.00
2018-05-24T10:27:22.074Z,112.00
2018-05-24T10:28:22.036Z,100.00
2018-05-24T10:29:22.083Z,96.00
2018-05-24T10:30:21.961Z,96.00
2018-05-24T10:31:21.920Z,92.00
2018-05-24T10:32:21.881Z,92.00
2018-05-24T10:33:21.840Z,100.00
2018-05-24T10:34:21.801Z,100.00
2018-05-24T10:35:21.762Z,104.00
2018-05-24T10:36:21.727Z,100.00
2018-05-24T10:37:21.683Z,112.00
2018-05-24T10:38:21.644Z,112.00
2018-05-24T10:39:21.606Z,112.00
2018-05-24T10:40:21.569Z,112.00
2018-05-24T10:41:21.527Z,104.00
2018-05-24T10:42:21.490Z,100.00
2018-05-24T10:43:21.450Z,100.00
2018-05-24T10:44:21.411Z,100.00
2018-05-24T10:45:21.371Z,100.00
2018-05-24T10:46:21.332Z,100.00
2018-05-24T10:47:21.291Z,104.00
2018-05-24T10:48:21.253Z,104.00
2018-05-24T10:49:21.214Z,104.00
2018-05-24T10:50:21.175Z,104.00
2018-05-24T10:51:21.334Z,100.00
2018-05-24T10:52:21.096Z,104.00
2018-05-24T10:53:21.056Z,112.00
2018-05-24T10:54:21.019Z,132.00
2018-05-24T10:55:20.979Z,140.00
2018-05-24T10:56:20.942Z,140.00
2018-05-24T10:57:20.899Z,136.00
2018-05-24T10:58:20.863Z,84.00
2018-05-24T10:59:20.821Z,84.00
2018-05-24T11:00:20.782Z,88.00
2018-05-24T11:01:20.741Z,104.00
2018-05-24T11:02:20.703Z,116.00
2018-05-24T11:03:20.761Z,144.00
2018-05-24T11:04:20.624Z,144.00
2018-05-24T11:05:20.585Z,124.00
2018-05-24T11:06:20.623Z,96.00
2018-05-24T11:07:20.507Z,64.00
2018-05-24T11:08:20.468Z,76.00
2018-05-24T11:09:20.427Z,84.00
2018-05-24T11:10:20.389Z,96.00
2018-05-24T11:11:20.349Z,140.00
2018-05-24T11:12:20.310Z,152.00
2018-05-24T11:13:20.273Z,116.00
2018-05-24T11:14:20.231Z,100.00
2018-05-24T11:15:20.190Z,96.00
2018-05-24T11:16:20.153Z,68.00
2018-05-24T11:17:20.112Z,72.00
2018-05-24T11:18:20.074Z,84.00
2018-05-24T11:19:20.034Z,96.00
2018-05-24T11:20:19.994Z,92.00
2018-05-24T11:21:19.955Z,88.00
2018-05-24T11:22:19.916Z,88.00
2018-05-24T11:23:19.877Z,92.00
2018-05-24T11:24:19.838Z,104.00
2018-05-24T11:25:19.872Z,92.00
2018-05-24T11:26:19.761Z,96.00
2018-05-24T11:27:19.719Z,80.00
2018-05-24T11:28:19.680Z,84.00
2018-05-24T11:29:19.640Z,76.00
2018-05-24T11:30:19.602Z,92.00
2018-05-24T11:31:19.560Z,124.00
2018-05-24T11:32:19.522Z,116.00
2018-05-24T11:33:19.481Z,72.00
2018-05-24T11:34:19.442Z,52.00
2018-05-24T11:35:19.403Z,56.00
2018-05-24T11:36:19.364Z,68.00
2018-05-24T11:37:19.328Z,60.00
2018-05-24T11:38:19.285Z,60.00
2018-05-24T11:39:19.296Z,60.00
2018-05-24T11:40:19.206Z,60.00
2018-05-24T11:41:19.167Z,64.00
2018-05-24T11:42:19.132Z,72.00
2018-05-24T11:43:19.279Z,64.00
2018-05-24T11:44:19.052Z,60.00
2018-05-24T11:45:19.010Z,56.00
2018-05-24T11:46:18.969Z,56.00
2018-05-24T11:47:18.930Z,56.00
2018-05-24T11:48:18.893Z,56.00
2018-05-24T11:49:18.850Z,56.00
2018-05-24T11:50:18.810Z,56.00
2018-05-24T11:51:18.773Z,60.00
2018-05-24T11:52:18.732Z,56.00
2018-05-24T11:53:18.692Z,60.00
2018-05-24T11:54:18.653Z,60.00
2018-05-24T11:55:18.614Z,60.00
2018-05-24T11:56:18.573Z,60.00
2018-05-24T11:57:18.533Z,64.00
2018-05-24T11:58:18.494Z,72.00
2018-05-24T11:59:18.455Z,68.00
2018-05-24T12:00:18.415Z,60.00
2018-05-24T12:01:18.374Z,60.00
2018-05-24T12:02:18.339Z,56.00
2018-05-24T12:03:18.296Z,52.00
2018-05-24T12:04:18.257Z,52.00
2018-05-24T12:05:18.216Z,52.00
2018-05-24T12:06:18.176Z,52.00
2018-05-24T12:07:18.138Z,48.00
2018-05-24T12:08:18.098Z,48.00
2018-05-24T12:09:18.059Z,48.00
2018-05-24T12:10:18.023Z,48.00
2018-05-24T12:11:17.980Z,48.00
2018-05-24T12:12:17.942Z,48.00
2018-05-24T12:13:17.899Z,48.00
2018-05-24T12:14:17.860Z,48.00
2018-05-24T12:15:17.990Z,48.00
2018-05-24T12:16:17.782Z,48.00
2018-05-24T12:17:17.741Z,48.00
2018-05-24T12:18:17.752Z,48.00
2018-05-24T12:19:17.663Z,48.00
2018-05-24T12:20:17.624Z,48.00
2018-05-24T12:21:17.583Z,48.00
2018-05-24T12:22:17.544Z,44.00
2018-05-24T12:23:17.505Z,48.00
2018-05-24T12:24:17.467Z,48.00
2018-05-24T12:25:17.430Z,48.00
2018-05-24T12:26:17.385Z,48.00
2018-05-24T12:27:17.346Z,52.00
2018-05-24T12:28:17.308Z,52.00
2018-05-24T12:29:17.266Z,48.00
2018-05-24T12:30:17.231Z,48.00
2018-05-24T12:31:17.189Z,44.00
2018-05-24T12:32:17.149Z,44.00
2018-05-24T12:33:17.108Z,44.00
2018-05-24T12:34:17.069Z,44.00
2018-05-24T12:35:17.094Z,44.00
2018-05-24T12:36:16.991Z,44.00
2018-05-24T12:37:16.950Z,44.00
2018-05-24T12:38:16.911Z,44.00
2018-05-24T12:39:16.876Z,44.00
2018-05-24T12:40:16.835Z,44.00
2018-05-24T12:41:16.790Z,44.00
2018-05-24T12:42:16.751Z,44.00
2018-05-24T12:43:16.711Z,40.00
2018-05-24T12:44:16.672Z,40.00